createdAt,value
2023-04-18T00:01:44.701Z,8.90
2023-04-18T00:04:12.435Z,8.65
2023-04-18T00:06:39.946Z,9.10
2023-04-18T00:09:06.679Z,8.57
2023-04-18T00:11:34.554Z,7.82
2023-04-18T00:14:01.270Z,8.32
2023-04-18T00:16:28.289Z,8.23
2023-04-18T00:18:57.047Z,8.40
2023-04-18T00:21:25.492Z,8.50
2023-04-18T00:23:52.201Z,8.30
2023-04-18T00:26:18.948Z,8.73
2023-04-18T00:28:48.035Z,8.93
2023-04-18T00:31:14.793Z,8.88
2023-04-18T00:33:41.645Z,8.90
2023-04-18T00:36:08.719Z,9.20
2023-04-18T00:38:35.957Z,9.13
2023-04-18T00:41:02.685Z,8.57
2023-04-18T00:43:29.394Z,9.18
2023-04-18T00:45:57.141Z,8.55
2023-04-18T00:48:24.607Z,8.88
2023-04-18T00:50:51.280Z,8.68
2023-04-18T00:53:17.954Z,9.35
2023-04-18T00:55:44.877Z,9.45
2023-04-18T00:58:11.996Z,9.57
2023-04-18T01:00:38.751Z,9.75
2023-04-18T01:03:08.374Z,8.23
2023-04-18T01:05:36.272Z,8.27
2023-04-18T01:08:04.206Z,8.48
2023-04-18T01:10:33.840Z,8.40
2023-04-18T01:13:29.680Z,7.82
2023-04-18T01:15:56.346Z,7.40
2023-04-18T01:18:24.279Z,7.10
2023-04-18T01:20:54.729Z,7.18
2023-04-18T01:23:21.454Z,5.93
2023-04-18T01:25:51.581Z,6.78
2023-04-18T01:28:21.342Z,6.55
2023-04-18T01:30:48.557Z,6.93
2023-04-18T01:33:15.229Z,7.13
2023-04-18T01:35:41.892Z,7.22
2023-04-18T01:38:08.588Z,7.13
2023-04-18T01:40:35.273Z,6.85
2023-04-18T01:43:02.096Z,6.88
2023-04-18T01:45:28.938Z,6.75
2023-04-18T01:47:55.816Z,6.38
2023-04-18T01:50:22.646Z,6.78
2023-04-18T01:52:49.325Z,7.03
2023-04-18T01:55:16.030Z,6.70
2023-04-18T01:57:42.850Z,6.88
2023-04-18T02:00:10.070Z,6.95
2023-04-18T02:02:43.227Z,7.65
2023-04-18T02:05:10.369Z,7.47
2023-04-18T02:07:39.618Z,7.93
2023-04-18T02:10:06.905Z,8.40
2023-04-18T02:12:34.282Z,7.55
2023-04-18T02:15:01.113Z,8.18
2023-04-18T02:17:28.749Z,9.10
2023-04-18T02:19:55.777Z,8.55
2023-04-18T02:22:22.499Z,8.85
2023-04-18T02:24:49.188Z,9.35
2023-04-18T02:27:15.873Z,8.98
2023-04-18T02:29:42.525Z,9.82
2023-04-18T02:32:09.277Z,9.13
2023-04-18T02:34:36.875Z,9.23
2023-04-18T02:37:04.250Z,9.40
2023-04-18T02:39:32.090Z,9.93
2023-04-18T02:41:58.934Z,9.93
2023-04-18T02:44:25.670Z,9.60
2023-04-18T02:46:52.433Z,9.10
2023-04-18T02:49:19.283Z,9.80
2023-04-18T02:51:46.535Z,9.95
2023-04-18T02:54:13.714Z,10.73
2023-04-18T02:57:06.793Z,9.98
2023-04-18T02:59:59.733Z,10.02
2023-04-18T03:02:45.169Z,10.65
2023-04-18T03:05:31.380Z,10.13
2023-04-18T03:08:01.214Z,11.60
2023-04-18T03:10:28.322Z,11.40
2023-04-18T03:12:55.776Z,11.02
2023-04-18T03:15:23.017Z,10.40
2023-04-18T03:17:51.042Z,13.15
2023-04-18T03:20:19.859Z,11.80
2023-04-18T03:22:46.555Z,11.35
2023-04-18T03:25:15.100Z,13.85
2023-04-18T03:27:49.782Z,11.25
2023-04-18T03:30:18.382Z,10.85
2023-04-18T03:32:52.821Z,10.18
2023-04-18T03:35:19.636Z,10.20
2023-04-18T03:37:46.359Z,9.85
2023-04-18T03:40:19.698Z,9.45
2023-04-18T03:42:48.403Z,10.82
2023-04-18T03:45:16.518Z,10.13
2023-04-18T03:47:45.358Z,9.90
2023-04-18T03:50:12.402Z,9.45
2023-04-18T03:52:40.612Z,9.77
2023-04-18T03:55:07.662Z,10.10
2023-04-18T03:57:34.641Z,9.05
2023-04-18T04:00:07.957Z,9.23
2023-04-18T04:02:42.570Z,9.50
2023-04-18T04:05:12.289Z,10.48
2023-04-18T04:07:39.224Z,10.43
2023-04-18T04:10:06.999Z,9.30
2023-04-18T04:12:33.666Z,9.15
2023-04-18T04:15:00.929Z,10.05
2023-04-18T04:17:28.071Z,9.50
2023-04-18T04:19:54.827Z,9.68
2023-04-18T04:22:21.564Z,9.38
2023-04-18T04:24:48.289Z,9.52
2023-04-18T04:27:19.125Z,9.68
2023-04-18T04:29:46.460Z,8.88
2023-04-18T04:32:13.810Z,9.60
2023-04-18T04:34:41.723Z,9.38
2023-04-18T04:37:13.878Z,9.23
2023-04-18T04:39:50.732Z,9.63
2023-04-18T04:42:32.787Z,10.00
2023-04-18T04:45:08.132Z,9.10
2023-04-18T04:47:36.587Z,10.25
2023-04-18T04:50:04.451Z,9.02
2023-04-18T04:52:32.734Z,8.93
2023-04-18T04:54:59.537Z,9.35
2023-04-18T04:57:26.598Z,9.27
2023-04-18T04:59:53.346Z,10.10
2023-04-18T05:02:23.246Z,9.55
2023-04-18T05:04:50.361Z,9.98
2023-04-18T05:07:17.115Z,9.07
2023-04-18T05:09:43.834Z,10.50
2023-04-18T05:12:10.554Z,10.75
2023-04-18T05:14:37.237Z,10.27
2023-04-18T05:17:04.167Z,10.70
2023-04-18T05:19:31.030Z,10.57
2023-04-18T05:21:57.699Z,9.90
2023-04-18T05:24:24.393Z,10.20
2023-04-18T05:26:51.378Z,11.32
2023-04-18T05:29:18.089Z,10.90
2023-04-18T05:31:44.738Z,11.25
2023-04-18T05:34:11.794Z,10.70
2023-04-18T05:36:38.847Z,10.00
2023-04-18T05:39:05.512Z,11.02
2023-04-18T05:41:32.247Z,10.82
2023-04-18T05:44:17.000Z,10.02
2023-04-18T05:46:43.929Z,11.32
2023-04-18T05:49:10.775Z,10.00
2023-04-18T05:51:37.667Z,9.85
2023-04-18T05:54:04.406Z,10.55
2023-04-18T05:56:31.648Z,10.05
2023-04-18T05:58:58.326Z,10.60
2023-04-18T06:01:25.152Z,9.98
2023-04-18T06:03:52.075Z,10.10
2023-04-18T06:06:19.000Z,9.98
2023-04-18T06:08:45.685Z,10.95
2023-04-18T06:11:12.597Z,11.45
2023-04-18T06:13:39.343Z,10.77
2023-04-18T06:16:06.721Z,10.27
2023-04-18T06:18:33.779Z,9.77
2023-04-18T06:21:00.452Z,10.45
2023-04-18T06:23:27.100Z,11.10
2023-04-18T06:25:53.808Z,11.00
2023-04-18T06:28:20.502Z,11.05
2023-04-18T06:30:47.169Z,9.50
2023-04-18T06:33:13.889Z,10.50
2023-04-18T06:35:41.179Z,9.95
2023-04-18T06:38:08.693Z,11.25
2023-04-18T06:40:35.370Z,9.98
2023-04-18T06:43:02.371Z,10.32
2023-04-18T06:45:31.349Z,10.40
2023-04-18T06:47:59.737Z,10.00
2023-04-18T06:50:26.888Z,10.05
2023-04-18T06:52:53.609Z,10.02
2023-04-18T06:55:20.328Z,9.65
2023-04-18T06:57:47.272Z,9.35
2023-04-18T07:00:14.631Z,8.38
2023-04-18T07:02:41.450Z,9.85
2023-04-18T07:05:08.476Z,9.50
2023-04-18T07:07:35.410Z,9.43
2023-04-18T07:10:02.288Z,10.15
2023-04-18T07:12:29.087Z,9.70
2023-04-18T07:14:55.754Z,8.98
2023-04-18T07:17:22.444Z,10.23
2023-04-18T07:19:49.136Z,8.88
2023-04-18T07:22:15.826Z,9.65
2023-04-18T07:24:43.922Z,9.15
2023-04-18T07:27:10.612Z,9.40
2023-04-18T07:29:37.367Z,9.57
2023-04-18T07:32:05.201Z,9.20
2023-04-18T07:34:36.009Z,8.80
2023-04-18T07:37:02.919Z,9.43
2023-04-18T07:39:31.872Z,8.55
2023-04-18T07:41:59.212Z,8.75
2023-04-18T07:44:25.920Z,9.07
2023-04-18T07:46:52.909Z,8.63
2023-04-18T07:49:19.586Z,9.45
2023-04-18T07:51:46.313Z,9.35
2023-04-18T07:54:13.025Z,9.73
2023-04-18T07:56:39.714Z,8.70
2023-04-18T07:59:06.381Z,9.60
2023-04-18T08:01:33.365Z,9.65
2023-04-18T08:04:01.771Z,9.00
2023-04-18T08:06:29.263Z,9.57
2023-04-18T08:08:55.994Z,9.35
2023-04-18T08:11:22.693Z,9.73
2023-04-18T08:13:49.427Z,9.75
2023-04-18T08:16:17.513Z,10.10
2023-04-18T08:18:44.515Z,9.13
2023-04-18T08:21:11.251Z,9.63
2023-04-18T08:23:38.042Z,8.65
2023-04-18T08:26:04.799Z,9.68
2023-04-18T08:28:31.482Z,9.45
2023-04-18T08:30:58.322Z,9.43
2023-04-18T08:33:25.134Z,9.23
2023-04-18T08:35:52.085Z,9.18
2023-04-18T08:38:19.110Z,8.68
2023-04-18T08:40:45.882Z,9.82
2023-04-18T08:43:14.961Z,8.80
2023-04-18T08:45:42.536Z,7.60
2023-04-18T08:48:13.696Z,9.10
2023-04-18T08:50:41.391Z,9.00
2023-04-18T08:53:08.305Z,8.10
2023-04-18T08:55:35.617Z,8.90
2023-04-18T08:58:03.097Z,8.98
2023-04-18T09:00:30.462Z,9.23
2023-04-18T09:02:57.629Z,8.95
2023-04-18T09:05:25.517Z,9.02
2023-04-18T09:07:53.755Z,8.82
2023-04-18T09:10:32.840Z,8.82
2023-04-18T09:13:02.962Z,9.52
2023-04-18T09:15:30.536Z,8.88
2023-04-18T09:17:59.178Z,8.27
2023-04-18T09:20:44.467Z,8.60
2023-04-18T09:23:14.839Z,7.85
2023-04-18T09:25:44.096Z,8.32
2023-04-18T09:28:27.784Z,8.45
2023-04-18T09:30:56.090Z,7.10
2023-04-18T09:33:33.340Z,7.60
2023-04-18T09:36:21.353Z,7.47
2023-04-18T09:38:54.628Z,7.03
2023-04-18T09:41:23.141Z,6.72
2023-04-18T09:43:49.829Z,6.57
2023-04-18T09:46:17.850Z,6.93
2023-04-18T09:48:44.806Z,6.43
2023-04-18T09:51:15.936Z,6.20
2023-04-18T09:53:47.632Z,6.30
2023-04-18T09:56:28.447Z,7.03
2023-04-18T09:59:09.405Z,5.97
2023-04-18T10:01:36.899Z,5.90
2023-04-18T10:04:06.636Z,6.57
2023-04-18T10:06:39.625Z,6.40
2023-04-18T10:09:08.808Z,5.68
2023-04-18T10:11:36.415Z,5.65
2023-04-18T10:14:07.032Z,5.95
2023-04-18T10:16:34.968Z,5.70
2023-04-18T10:19:21.851Z,5.55
2023-04-18T10:21:58.887Z,5.53
2023-04-18T10:24:55.015Z,5.85
2023-04-18T10:27:57.476Z,6.07
2023-04-18T10:30:42.225Z,5.50
2023-04-18T10:33:30.338Z,6.07
2023-04-18T10:36:13.690Z,5.60
2023-04-18T10:38:48.718Z,5.03
2023-04-18T10:41:27.544Z,5.20
2023-04-18T10:44:15.818Z,5.60
2023-04-18T10:46:51.877Z,5.60
2023-04-18T10:49:25.445Z,5.75
2023-04-18T10:51:55.694Z,5.32
2023-04-18T10:54:32.166Z,4.75
2023-04-18T10:57:01.779Z,4.75
2023-04-18T10:59:30.251Z,4.78
2023-04-18T11:02:00.365Z,5.13
2023-04-18T11:04:28.753Z,4.28
2023-04-18T11:06:57.262Z,4.43
2023-04-18T11:09:24.938Z,4.30
2023-04-18T11:12:09.131Z,4.50
2023-04-18T11:14:47.593Z,4.90
2023-04-18T11:17:28.285Z,4.72
2023-04-18T11:20:08.670Z,4.60
2023-04-18T11:22:47.054Z,3.83
2023-04-18T11:25:14.430Z,3.90
2023-04-18T11:27:45.890Z,4.00
2023-04-18T11:30:14.097Z,4.35
2023-04-18T11:32:41.235Z,6.72
2023-04-18T11:35:09.549Z,7.45
2023-04-18T11:37:37.825Z,7.43
2023-04-18T11:40:07.651Z,6.90
2023-04-18T11:42:35.610Z,7.28
2023-04-18T11:45:02.894Z,6.80
2023-04-18T11:47:34.146Z,6.80
2023-04-18T11:50:05.810Z,5.95
2023-04-18T11:52:33.639Z,5.20
2023-04-18T11:55:18.399Z,5.40
2023-04-18T11:57:57.821Z,5.10
2023-04-18T12:00:38.648Z,5.35
2023-04-18T12:03:15.607Z,5.30
2023-04-18T12:05:42.685Z,5.72
2023-04-18T12:08:17.165Z,5.50
2023-04-18T12:10:47.571Z,5.97
2023-04-18T12:13:14.423Z,4.75
2023-04-18T12:15:44.471Z,4.63
2023-04-18T12:18:13.070Z,4.40
2023-04-18T12:20:50.583Z,4.43
2023-04-18T12:23:31.466Z,4.60
2023-04-18T12:26:13.720Z,4.10
2023-04-18T12:28:44.989Z,5.47
2023-04-18T12:31:11.865Z,4.00
2023-04-18T12:33:38.613Z,5.28
2023-04-18T12:36:06.248Z,5.72
2023-04-18T12:38:32.926Z,5.80
2023-04-18T12:40:59.687Z,5.13
2023-04-18T12:43:26.646Z,4.00
2023-04-18T12:45:53.421Z,3.78
2023-04-18T12:48:20.141Z,4.65
2023-04-18T12:50:46.781Z,4.45
2023-04-18T12:53:13.583Z,4.28
2023-04-18T12:55:40.260Z,4.35
2023-04-18T12:58:06.927Z,4.13
2023-04-18T13:00:33.850Z,4.43
2023-04-18T13:03:00.945Z,4.72
2023-04-18T13:05:32.621Z,4.22
2023-04-18T13:10:30.939Z,4.15
2023-04-18T13:12:57.638Z,3.90
2023-04-18T13:15:24.520Z,3.60
2023-04-18T13:17:51.298Z,4.22
2023-04-18T13:20:18.945Z,4.30
2023-04-18T13:22:45.712Z,3.90
2023-04-18T13:25:12.495Z,3.80
2023-04-18T13:27:41.965Z,3.58
2023-04-18T13:30:10.676Z,4.22
2023-04-18T13:32:39.185Z,4.32
2023-04-18T13:35:08.772Z,4.15
2023-04-18T13:37:35.705Z,4.93
2023-04-18T13:40:05.480Z,4.63
2023-04-18T13:42:36.666Z,4.90
2023-04-18T13:45:03.979Z,5.28
2023-04-18T13:47:30.891Z,5.25
2023-04-18T13:49:57.859Z,4.57
2023-04-18T13:52:25.010Z,4.80
2023-04-18T13:54:51.642Z,4.75
2023-04-18T13:57:18.419Z,4.13
2023-04-18T13:59:45.103Z,4.80
2023-04-18T14:02:12.322Z,5.00
2023-04-18T14:04:39.296Z,4.85
2023-04-18T14:07:09.041Z,4.65
2023-04-18T14:09:35.760Z,4.68
2023-04-18T14:12:02.674Z,4.68
2023-04-18T14:14:29.524Z,4.82
2023-04-18T14:16:56.243Z,5.20
2023-04-18T14:19:22.958Z,4.97
2023-04-18T14:21:49.654Z,4.88
2023-04-18T14:24:16.508Z,4.63
2023-04-18T14:26:43.253Z,5.00
2023-04-18T14:29:09.895Z,5.07
2023-04-18T14:31:36.844Z,4.95
2023-04-18T14:34:03.585Z,4.50
2023-04-18T14:36:30.877Z,4.07
2023-04-18T14:38:57.685Z,4.18
2023-04-18T14:41:26.275Z,4.53
2023-04-18T14:43:53.091Z,4.03
2023-04-18T14:46:21.299Z,4.20
2023-04-18T14:48:48.032Z,4.38
2023-04-18T14:51:16.283Z,3.92
2023-04-18T14:53:43.147Z,3.65
2023-04-18T14:56:09.884Z,3.90
2023-04-18T14:58:36.727Z,3.83
2023-04-18T15:01:04.304Z,3.72
2023-04-18T15:03:31.298Z,3.55
2023-04-18T15:05:58.353Z,3.10
2023-04-18T15:08:25.238Z,3.13
2023-04-18T15:10:51.918Z,3.72
2023-04-18T15:13:18.576Z,2.95
2023-04-18T15:15:54.837Z,3.50
2023-04-18T15:18:21.813Z,3.95
2023-04-18T15:20:48.645Z,4.10
2023-04-18T15:23:15.788Z,3.75
2023-04-18T15:25:43.833Z,4.07
2023-04-18T15:28:12.036Z,3.92
2023-04-18T15:30:39.236Z,4.10
2023-04-18T15:33:05.981Z,3.53
2023-04-18T15:35:32.725Z,3.53
2023-04-18T15:37:59.407Z,4.03
2023-04-18T15:40:26.185Z,3.65
2023-04-18T15:42:54.238Z,3.63
2023-04-18T15:45:21.357Z,3.88
2023-04-18T15:47:48.456Z,4.10
2023-04-18T15:50:16.237Z,4.30
2023-04-18T15:52:43.892Z,4.15
2023-04-18T15:55:12.896Z,4.57
2023-04-18T15:57:40.525Z,4.03
2023-04-18T16:00:16.252Z,4.30
2023-04-18T16:02:44.443Z,4.13
2023-04-18T16:05:15.265Z,4.47
2023-04-18T16:07:42.584Z,4.80
2023-04-18T16:10:10.866Z,5.03
2023-04-18T16:12:38.742Z,5.05
2023-04-18T16:15:07.003Z,5.13
2023-04-18T16:17:34.195Z,5.22
2023-04-18T16:20:01.183Z,5.18
2023-04-18T16:22:27.964Z,4.90
2023-04-18T16:24:54.741Z,5.30
2023-04-18T16:27:21.697Z,6.05
2023-04-18T16:29:48.470Z,5.78
2023-04-18T16:32:15.310Z,6.07
2023-04-18T16:34:41.979Z,11.32
2023-04-18T16:37:08.778Z,5.68
2023-04-18T16:39:35.504Z,7.68
2023-04-18T16:42:03.449Z,5.07
2023-04-18T16:44:30.679Z,5.30
2023-04-18T16:46:57.495Z,7.32
2023-04-18T16:49:25.187Z,8.60
2023-04-18T16:51:51.978Z,7.28
2023-04-18T16:54:18.681Z,14.13
2023-04-18T16:56:45.524Z,4.63
2023-04-18T16:59:12.250Z,5.60
2023-04-18T17:01:39.134Z,10.15
2023-04-18T17:04:05.955Z,6.45
2023-04-18T17:06:32.802Z,4.38
2023-04-18T17:08:59.744Z,5.45
2023-04-18T17:11:26.572Z,5.13
2023-04-18T17:13:53.414Z,4.85
2023-04-18T17:16:20.297Z,5.78
2023-04-18T17:18:47.044Z,4.85
2023-04-18T17:21:13.741Z,4.60
2023-04-18T17:23:42.199Z,4.93
2023-04-18T17:26:09.648Z,5.63
2023-04-18T17:28:36.443Z,5.80
2023-04-18T17:31:03.705Z,6.80
2023-04-18T17:33:31.038Z,6.15
2023-04-18T17:35:58.044Z,5.53
2023-04-18T17:38:25.009Z,5.60
2023-04-18T17:41:01.899Z,6.13
2023-04-18T17:43:28.583Z,6.80
2023-04-18T17:45:56.868Z,7.35
2023-04-18T17:48:23.669Z,6.13
2023-04-18T17:50:50.409Z,5.85
2023-04-18T17:53:18.086Z,6.00
2023-04-18T17:55:46.717Z,5.82
2023-04-18T17:58:13.492Z,5.68
2023-04-18T18:00:40.291Z,5.95
2023-04-18T18:03:09.294Z,5.55
2023-04-18T18:05:36.114Z,5.70
2023-04-18T18:08:02.816Z,5.22
2023-04-18T18:10:29.978Z,5.30
2023-04-18T18:12:56.753Z,5.47
2023-04-18T18:15:24.373Z,5.45
2023-04-18T18:17:51.720Z,5.07
2023-04-18T18:20:19.404Z,8.05
2023-04-18T18:22:46.228Z,43.25
2023-04-18T18:25:13.005Z,19.38
2023-04-18T18:27:40.653Z,6.30
2023-04-18T18:30:08.285Z,5.20
2023-04-18T18:32:35.133Z,5.13
2023-04-18T18:35:02.548Z,6.28
2023-04-18T18:37:29.212Z,6.05
2023-04-18T18:39:56.317Z,6.03
2023-04-18T18:42:23.335Z,5.30
2023-04-18T18:44:50.429Z,5.97
2023-04-18T18:47:18.294Z,6.20
2023-04-18T18:49:44.988Z,6.00
2023-04-18T18:52:11.649Z,5.70
2023-04-18T18:54:38.349Z,5.90
2023-04-18T18:57:05.132Z,5.78
2023-04-18T18:59:31.905Z,5.72
2023-04-18T19:01:59.019Z,5.78
2023-04-18T19:04:26.001Z,6.20
2023-04-18T19:06:53.517Z,5.78
2023-04-18T19:09:20.307Z,6.30
2023-04-18T19:11:47.028Z,6.50
2023-04-18T19:14:13.866Z,7.53
2023-04-18T19:16:40.673Z,14.13
2023-04-18T19:19:07.496Z,7.50
2023-04-18T19:21:34.200Z,12.43
2023-04-18T19:24:00.848Z,6.63
2023-04-18T19:26:27.491Z,6.20
2023-04-18T19:28:54.483Z,5.30
2023-04-18T19:31:21.192Z,9.10
2023-04-18T19:33:47.890Z,5.90
2023-04-18T19:36:14.612Z,6.53
2023-04-18T19:38:41.620Z,6.07
2023-04-18T19:41:08.349Z,6.10
2023-04-18T19:43:35.029Z,5.70
2023-04-18T19:46:01.785Z,6.28
2023-04-18T19:48:28.455Z,6.15
2023-04-18T19:50:56.575Z,5.97
2023-04-18T19:53:23.734Z,6.20
2023-04-18T19:55:50.430Z,5.97
2023-04-18T19:58:35.704Z,5.45
2023-04-18T20:01:02.519Z,5.50
2023-04-18T20:03:29.471Z,6.10
2023-04-18T20:05:56.375Z,5.65
2023-04-18T20:08:23.109Z,5.80
2023-04-18T20:10:49.860Z,5.63
2023-04-18T20:13:16.499Z,6.13
2023-04-18T20:15:43.189Z,5.65
2023-04-18T20:18:09.998Z,6.13
2023-04-18T20:20:36.847Z,6.20
2023-04-18T20:23:03.495Z,5.57
2023-04-18T20:25:30.237Z,5.50
2023-04-18T20:27:57.171Z,5.95
2023-04-18T20:30:24.207Z,6.00
2023-04-18T20:32:51.272Z,6.78
2023-04-18T20:35:19.785Z,5.97
2023-04-18T20:37:46.421Z,6.05
2023-04-18T20:40:13.129Z,5.72
2023-04-18T20:42:39.791Z,6.25
2023-04-18T20:45:10.787Z,6.20
2023-04-18T20:47:37.806Z,6.30
2023-04-18T20:50:04.914Z,6.63
2023-04-18T20:52:31.624Z,6.32
2023-04-18T20:54:58.277Z,6.95
2023-04-18T20:57:25.029Z,6.43
2023-04-18T20:59:54.367Z,5.95
2023-04-18T21:02:21.262Z,6.65
2023-04-18T21:04:48.597Z,6.88
2023-04-18T21:07:15.353Z,6.57
2023-04-18T21:09:41.997Z,6.30
2023-04-18T21:12:08.740Z,6.47
2023-04-18T21:14:35.457Z,6.55
2023-04-18T21:17:02.307Z,6.28
2023-04-18T21:19:28.999Z,6.10
2023-04-18T21:21:55.740Z,6.85
2023-04-18T21:24:22.428Z,6.15
2023-04-18T21:26:49.069Z,6.65
2023-04-18T21:29:15.765Z,6.75
2023-04-18T21:31:42.520Z,7.88
2023-04-18T21:34:10.095Z,6.20
2023-04-18T21:36:37.041Z,6.43
2023-04-18T21:39:04.008Z,6.35
2023-04-18T21:41:30.791Z,6.38
2023-04-18T21:43:57.503Z,6.60
2023-04-18T21:46:24.735Z,5.93
2023-04-18T21:48:51.544Z,7.00
2023-04-18T21:51:18.398Z,6.80
2023-04-18T21:53:45.142Z,6.97
2023-04-18T21:56:11.902Z,6.55
2023-04-18T21:58:38.607Z,7.03
2023-04-18T22:01:05.531Z,6.82
2023-04-18T22:03:34.104Z,7.13
2023-04-18T22:06:01.670Z,7.18
2023-04-18T22:08:29.462Z,6.65
2023-04-18T22:10:58.876Z,6.38
2023-04-18T22:13:30.023Z,7.32
2023-04-18T22:15:58.202Z,7.57
2023-04-18T22:18:25.469Z,7.28
2023-04-18T22:20:53.798Z,6.50
2023-04-18T22:23:20.645Z,7.30
2023-04-18T22:25:47.713Z,7.25
2023-04-18T22:28:14.406Z,6.90
2023-04-18T22:30:41.115Z,6.85
2023-04-18T22:33:07.811Z,6.50
2023-04-18T22:35:34.800Z,6.25
2023-04-18T22:38:01.485Z,6.55
2023-04-18T22:40:28.228Z,6.93
2023-04-18T22:42:55.072Z,6.07
2023-04-18T22:45:21.770Z,6.45
2023-04-18T22:47:48.537Z,5.85
2023-04-18T22:50:15.314Z,5.80
2023-04-18T22:52:42.017Z,6.47
2023-04-18T22:55:09.607Z,6.20
2023-04-18T22:57:37.626Z,6.00
2023-04-18T23:00:06.548Z,5.80
2023-04-18T23:02:33.449Z,5.40
2023-04-18T23:05:02.332Z,5.65
2023-04-18T23:07:29.118Z,5.65
2023-04-18T23:09:55.983Z,5.72
2023-04-18T23:12:22.673Z,5.53
2023-04-18T23:14:49.446Z,5.75
2023-04-18T23:17:16.196Z,5.50
2023-04-18T23:19:44.937Z,5.65
2023-04-18T23:22:11.707Z,6.00
2023-04-18T23:24:38.851Z,6.07
2023-04-18T23:27:05.899Z,5.68
2023-04-18T23:29:37.370Z,5.35
2023-04-18T23:32:04.977Z,5.60
2023-04-18T23:34:32.501Z,5.38
2023-04-18T23:37:00.575Z,5.65
2023-04-18T23:39:27.268Z,5.60
2023-04-18T23:41:54.062Z,5.45
2023-04-18T23:44:20.890Z,5.07
2023-04-18T23:46:48.083Z,5.57
2023-04-18T23:49:15.516Z,5.82
2023-04-18T23:51:42.436Z,6.22
2023-04-18T23:54:09.159Z,5.07
2023-04-18T23:56:36.012Z,5.38
2023-04-18T23:59:02.811Z,4.75
